sensor_id;sensor_type;location;lat;lon;timestamp;P1;durP1;ratioP1;P2;durP2;ratioP2
6693;SDS011;3384;42.628;23.380;2023-06-19T00:01:42;3.00;;;2.90;;
6693;SDS011;3384;42.628;23.380;2023-06-19T00:04:09;3.47;;;3.33;;
6693;SDS011;3384;42.628;23.380;2023-06-19T00:06:37;3.80;;;3.33;;
6693;SDS011;3384;42.628;23.380;2023-06-19T00:09:04;2.90;;;2.70;;
6693;SDS011;3384;42.628;23.380;2023-06-19T00:11:32;3.20;;;3.10;;
6693;SDS011;3384;42.628;23.380;2023-06-19T00:13:59;3.03;;;2.93;;
6693;SDS011;3384;42.628;23.380;2023-06-19T00:16:26;3.87;;;3.60;;
6693;SDS011;3384;42.628;23.380;2023-06-19T00:18:53;3.77;;;3.47;;
6693;SDS011;3384;42.628;23.380;2023-06-19T00:21:21;3.70;;;3.50;;
6693;SDS011;3384;42.628;23.380;2023-06-19T00:23:50;3.00;;;2.90;;
6693;SDS011;3384;42.628;23.380;2023-06-19T00:26:17;3.70;;;3.60;;
6693;SDS011;3384;42.628;23.380;2023-06-19T00:28:47;3.53;;;3.33;;
6693;SDS011;3384;42.628;23.380;2023-06-19T00:31:14;3.60;;;3.30;;
6693;SDS011;3384;42.628;23.380;2023-06-19T00:33:41;3.40;;;3.30;;
6693;SDS011;3384;42.628;23.380;2023-06-19T00:36:08;7.20;;;3.23;;
6693;SDS011;3384;42.628;23.380;2023-06-19T00:38:36;4.57;;;3.90;;
6693;SDS011;3384;42.628;23.380;2023-06-19T00:41:05;3.77;;;3.57;;
6693;SDS011;3384;42.628;23.380;2023-06-19T00:43:32;3.67;;;3.57;;
6693;SDS011;3384;42.628;23.380;2023-06-19T00:45:59;4.90;;;3.80;;
6693;SDS011;3384;42.628;23.380;2023-06-19T00:48:26;4.87;;;4.40;;
6693;SDS011;3384;42.628;23.380;2023-06-19T00:50:54;3.77;;;3.63;;
6693;SDS011;3384;42.628;23.380;2023-06-19T00:53:22;3.43;;;3.20;;
6693;SDS011;3384;42.628;23.380;2023-06-19T00:55:50;3.70;;;3.53;;
6693;SDS011;3384;42.628;23.380;2023-06-19T00:58:19;4.03;;;3.70;;
6693;SDS011;3384;42.628;23.380;2023-06-19T01:00:46;3.17;;;3.07;;
6693;SDS011;3384;42.628;23.380;2023-06-19T01:03:14;3.10;;;3.00;;
6693;SDS011;3384;42.628;23.380;2023-06-19T01:05:41;8.30;;;4.03;;
6693;SDS011;3384;42.628;23.380;2023-06-19T01:08:09;3.00;;;2.90;;
6693;SDS011;3384;42.628;23.380;2023-06-19T01:10:40;3.67;;;3.57;;
6693;SDS011;3384;42.628;23.380;2023-06-19T01:13:12;4.00;;;3.90;;
6693;SDS011;3384;42.628;23.380;2023-06-19T01:15:47;3.50;;;3.30;;
6693;SDS011;3384;42.628;23.380;2023-06-19T01:18:14;3.50;;;3.40;;
6693;SDS011;3384;42.628;23.380;2023-06-19T01:20:42;3.50;;;3.20;;
6693;SDS011;3384;42.628;23.380;2023-06-19T01:23:11;4.80;;;3.50;;
6693;SDS011;3384;42.628;23.380;2023-06-19T01:25:38;4.47;;;3.77;;
6693;SDS011;3384;42.628;23.380;2023-06-19T01:28:06;3.73;;;3.37;;
6693;SDS011;3384;42.628;23.380;2023-06-19T01:30:40;3.70;;;3.40;;
6693;SDS011;3384;42.628;23.380;2023-06-19T01:33:09;3.77;;;3.47;;
6693;SDS011;3384;42.628;23.380;2023-06-19T01:35:42;4.17;;;3.97;;
6693;SDS011;3384;42.628;23.380;2023-06-19T01:38:11;4.47;;;4.27;;
6693;SDS011;3384;42.628;23.380;2023-06-19T01:40:39;8.47;;;3.73;;
6693;SDS011;3384;42.628;23.380;2023-06-19T01:43:07;4.00;;;3.73;;
6693;SDS011;3384;42.628;23.380;2023-06-19T01:45:34;4.40;;;4.20;;
6693;SDS011;3384;42.628;23.380;2023-06-19T01:48:01;4.50;;;4.20;;
6693;SDS011;3384;42.628;23.380;2023-06-19T01:50:29;5.13;;;4.60;;
6693;SDS011;3384;42.628;23.380;2023-06-19T01:52:56;9.23;;;4.23;;
6693;SDS011;3384;42.628;23.380;2023-06-19T01:55:24;7.07;;;4.30;;
6693;SDS011;3384;42.628;23.380;2023-06-19T01:57:50;6.23;;;4.57;;
6693;SDS011;3384;42.628;23.380;2023-06-19T02:00:18;4.87;;;4.50;;
6693;SDS011;3384;42.628;23.380;2023-06-19T02:02:45;4.20;;;4.10;;
6693;SDS011;3384;42.628;23.380;2023-06-19T02:05:11;5.57;;;5.00;;
6693;SDS011;3384;42.628;23.380;2023-06-19T02:07:39;8.53;;;4.60;;
6693;SDS011;3384;42.628;23.380;2023-06-19T02:10:06;6.80;;;3.90;;
6693;SDS011;3384;42.628;23.380;2023-06-19T02:12:35;4.00;;;3.90;;
6693;SDS011;3384;42.628;23.380;2023-06-19T02:15:02;11.67;;;4.00;;
6693;SDS011;3384;42.628;23.380;2023-06-19T02:17:29;4.23;;;3.90;;
6693;SDS011;3384;42.628;23.380;2023-06-19T02:19:56;5.30;;;4.83;;
6693;SDS011;3384;42.628;23.380;2023-06-19T02:22:23;4.90;;;4.37;;
6693;SDS011;3384;42.628;23.380;2023-06-19T02:24:50;4.97;;;4.57;;
6693;SDS011;3384;42.628;23.380;2023-06-19T02:27:18;5.17;;;4.60;;
6693;SDS011;3384;42.628;23.380;2023-06-19T02:29:46;9.60;;;5.80;;
6693;SDS011;3384;42.628;23.380;2023-06-19T02:32:13;4.70;;;4.40;;
6693;SDS011;3384;42.628;23.380;2023-06-19T02:34:40;5.40;;;5.00;;
6693;SDS011;3384;42.628;23.380;2023-06-19T02:37:07;5.77;;;5.50;;
6693;SDS011;3384;42.628;23.380;2023-06-19T02:39:33;9.50;;;4.53;;
6693;SDS011;3384;42.628;23.380;2023-06-19T02:42:00;6.23;;;5.43;;
6693;SDS011;3384;42.628;23.380;2023-06-19T02:44:27;7.43;;;5.23;;
6693;SDS011;3384;42.628;23.380;2023-06-19T02:46:55;5.50;;;5.27;;
6693;SDS011;3384;42.628;23.380;2023-06-19T02:49:22;15.33;;;5.33;;
6693;SDS011;3384;42.628;23.380;2023-06-19T02:51:48;5.30;;;4.83;;
6693;SDS011;3384;42.628;23.380;2023-06-19T02:54:15;5.70;;;5.20;;
6693;SDS011;3384;42.628;23.380;2023-06-19T02:56:42;9.37;;;6.60;;
6693;SDS011;3384;42.628;23.380;2023-06-19T02:59:09;5.63;;;5.00;;
6693;SDS011;3384;42.628;23.380;2023-06-19T03:01:36;5.23;;;4.73;;
6693;SDS011;3384;42.628;23.380;2023-06-19T03:04:04;5.53;;;5.23;;
6693;SDS011;3384;42.628;23.380;2023-06-19T03:06:31;6.63;;;6.00;;
6693;SDS011;3384;42.628;23.380;2023-06-19T03:08:58;5.43;;;5.13;;
6693;SDS011;3384;42.628;23.380;2023-06-19T03:11:25;8.63;;;4.70;;
6693;SDS011;3384;42.628;23.380;2023-06-19T03:13:53;5.73;;;5.23;;
6693;SDS011;3384;42.628;23.380;2023-06-19T03:16:20;14.43;;;5.30;;
6693;SDS011;3384;42.628;23.380;2023-06-19T03:18:47;6.90;;;4.97;;
6693;SDS011;3384;42.628;23.380;2023-06-19T03:21:16;5.53;;;5.23;;
6693;SDS011;3384;42.628;23.380;2023-06-19T03:23:44;6.50;;;6.00;;
6693;SDS011;3384;42.628;23.380;2023-06-19T03:26:17;6.97;;;5.83;;
6693;SDS011;3384;42.628;23.380;2023-06-19T03:28:44;6.80;;;6.50;;
6693;SDS011;3384;42.628;23.380;2023-06-19T03:31:12;6.10;;;5.60;;
6693;SDS011;3384;42.628;23.380;2023-06-19T03:33:39;5.40;;;5.17;;
6693;SDS011;3384;42.628;23.380;2023-06-19T03:36:06;4.90;;;4.73;;
6693;SDS011;3384;42.628;23.380;2023-06-19T03:38:35;5.27;;;5.07;;
6693;SDS011;3384;42.628;23.380;2023-06-19T03:41:02;5.03;;;4.73;;
6693;SDS011;3384;42.628;23.380;2023-06-19T03:43:28;5.20;;;4.90;;
6693;SDS011;3384;42.628;23.380;2023-06-19T03:45:55;7.40;;;5.30;;
6693;SDS011;3384;42.628;23.380;2023-06-19T03:48:22;11.13;;;6.00;;
6693;SDS011;3384;42.628;23.380;2023-06-19T03:50:49;6.10;;;5.70;;
6693;SDS011;3384;42.628;23.380;2023-06-19T03:53:16;6.23;;;5.60;;
6693;SDS011;3384;42.628;23.380;2023-06-19T03:55:44;5.90;;;5.40;;
6693;SDS011;3384;42.628;23.380;2023-06-19T03:58:10;10.17;;;5.33;;
6693;SDS011;3384;42.628;23.380;2023-06-19T04:00:37;7.30;;;5.97;;
6693;SDS011;3384;42.628;23.380;2023-06-19T04:03:05;13.23;;;6.50;;
6693;SDS011;3384;42.628;23.380;2023-06-19T04:05:31;7.87;;;6.10;;
6693;SDS011;3384;42.628;23.380;2023-06-19T04:07:58;6.93;;;5.40;;
6693;SDS011;3384;42.628;23.380;2023-06-19T04:10:25;7.00;;;6.53;;
6693;SDS011;3384;42.628;23.380;2023-06-19T04:12:53;5.90;;;5.70;;
6693;SDS011;3384;42.628;23.380;2023-06-19T04:15:21;6.20;;;5.80;;
6693;SDS011;3384;42.628;23.380;2023-06-19T04:17:47;5.10;;;4.60;;
6693;SDS011;3384;42.628;23.380;2023-06-19T04:20:14;6.87;;;5.40;;
6693;SDS011;3384;42.628;23.380;2023-06-19T04:22:41;6.83;;;6.17;;
6693;SDS011;3384;42.628;23.380;2023-06-19T04:25:09;9.10;;;8.30;;
6693;SDS011;3384;42.628;23.380;2023-06-19T04:27:37;18.00;;;12.43;;
6693;SDS011;3384;42.628;23.380;2023-06-19T04:30:05;21.53;;;10.30;;
6693;SDS011;3384;42.628;23.380;2023-06-19T04:32:33;11.90;;;6.33;;
6693;SDS011;3384;42.628;23.380;2023-06-19T04:35:00;7.30;;;6.60;;
6693;SDS011;3384;42.628;23.380;2023-06-19T04:37:27;55.77;;;30.47;;
6693;SDS011;3384;42.628;23.380;2023-06-19T04:39:54;21.43;;;14.73;;
6693;SDS011;3384;42.628;23.380;2023-06-19T04:42:23;14.23;;;10.27;;
6693;SDS011;3384;42.628;23.380;2023-06-19T04:44:51;10.77;;;9.70;;
6693;SDS011;3384;42.628;23.380;2023-06-19T04:47:21;8.57;;;7.87;;
6693;SDS011;3384;42.628;23.380;2023-06-19T04:49:52;13.90;;;8.13;;
6693;SDS011;3384;42.628;23.380;2023-06-19T04:52:22;13.77;;;6.43;;
6693;SDS011;3384;42.628;23.380;2023-06-19T04:54:54;21.67;;;6.90;;
6693;SDS011;3384;42.628;23.380;2023-06-19T04:57:21;5.80;;;5.50;;
6693;SDS011;3384;42.628;23.380;2023-06-19T04:59:47;6.90;;;6.23;;
6693;SDS011;3384;42.628;23.380;2023-06-19T05:02:15;8.17;;;5.60;;
6693;SDS011;3384;42.628;23.380;2023-06-19T05:04:44;7.50;;;7.00;;
6693;SDS011;3384;42.628;23.380;2023-06-19T05:07:12;8.90;;;8.13;;
6693;SDS011;3384;42.628;23.380;2023-06-19T05:09:40;7.90;;;5.77;;
6693;SDS011;3384;42.628;23.380;2023-06-19T05:12:07;8.83;;;5.90;;
6693;SDS011;3384;42.628;23.380;2023-06-19T05:14:34;5.63;;;5.23;;
6693;SDS011;3384;42.628;23.380;2023-06-19T05:17:01;6.93;;;5.57;;
6693;SDS011;3384;42.628;23.380;2023-06-19T05:19:28;16.90;;;4.77;;
6693;SDS011;3384;42.628;23.380;2023-06-19T05:21:56;5.67;;;5.13;;
6693;SDS011;3384;42.628;23.380;2023-06-19T05:24:24;4.60;;;4.40;;
6693;SDS011;3384;42.628;23.380;2023-06-19T05:26:51;4.70;;;4.50;;
6693;SDS011;3384;42.628;23.380;2023-06-19T05:29:18;4.53;;;4.23;;
6693;SDS011;3384;42.628;23.380;2023-06-19T05:31:48;5.30;;;3.70;;
6693;SDS011;3384;42.628;23.380;2023-06-19T05:34:15;3.77;;;3.67;;
6693;SDS011;3384;42.628;23.380;2023-06-19T05:36:44;4.10;;;4.00;;
6693;SDS011;3384;42.628;23.380;2023-06-19T05:39:15;4.23;;;3.90;;
6693;SDS011;3384;42.628;23.380;2023-06-19T05:41:44;4.43;;;4.13;;
6693;SDS011;3384;42.628;23.380;2023-06-19T05:44:11;4.67;;;4.47;;
6693;SDS011;3384;42.628;23.380;2023-06-19T05:46:41;4.40;;;4.00;;
6693;SDS011;3384;42.628;23.380;2023-06-19T05:49:10;5.17;;;4.23;;
6693;SDS011;3384;42.628;23.380;2023-06-19T05:51:37;3.70;;;3.60;;
6693;SDS011;3384;42.628;23.380;2023-06-19T05:54:04;6.97;;;4.07;;
6693;SDS011;3384;42.628;23.380;2023-06-19T05:56:32;5.03;;;3.90;;
6693;SDS011;3384;42.628;23.380;2023-06-19T05:58:59;3.80;;;3.53;;
6693;SDS011;3384;42.628;23.380;2023-06-19T06:01:26;4.43;;;4.17;;
6693;SDS011;3384;42.628;23.380;2023-06-19T06:03:53;6.20;;;4.03;;
6693;SDS011;3384;42.628;23.380;2023-06-19T06:06:20;4.40;;;4.10;;
6693;SDS011;3384;42.628;23.380;2023-06-19T06:08:51;4.43;;;4.03;;
6693;SDS011;3384;42.628;23.380;2023-06-19T06:11:20;6.13;;;3.50;;
6693;SDS011;3384;42.628;23.380;2023-06-19T06:13:48;10.43;;;4.07;;
6693;SDS011;3384;42.628;23.380;2023-06-19T06:16:17;3.30;;;3.20;;
6693;SDS011;3384;42.628;23.380;2023-06-19T06:18:47;3.70;;;3.40;;
6693;SDS011;3384;42.628;23.380;2023-06-19T06:21:14;3.20;;;3.00;;
6693;SDS011;3384;42.628;23.380;2023-06-19T06:23:44;3.63;;;3.43;;
6693;SDS011;3384;42.628;23.380;2023-06-19T06:26:13;3.77;;;3.67;;
6693;SDS011;3384;42.628;23.380;2023-06-19T06:28:40;3.67;;;3.43;;
6693;SDS011;3384;42.628;23.380;2023-06-19T06:31:08;4.00;;;3.80;;
6693;SDS011;3384;42.628;23.380;2023-06-19T06:33:35;3.90;;;3.70;;
6693;SDS011;3384;42.628;23.380;2023-06-19T06:36:02;3.50;;;3.40;;
6693;SDS011;3384;42.628;23.380;2023-06-19T06:38:29;5.03;;;3.27;;
6693;SDS011;3384;42.628;23.380;2023-06-19T06:40:56;3.93;;;3.73;;
6693;SDS011;3384;42.628;23.380;2023-06-19T06:43:23;3.67;;;3.50;;
6693;SDS011;3384;42.628;23.380;2023-06-19T06:45:50;4.47;;;3.60;;
6693;SDS011;3384;42.628;23.380;2023-06-19T06:48:18;4.53;;;4.33;;
6693;SDS011;3384;42.628;23.380;2023-06-19T06:50:44;4.57;;;3.50;;
6693;SDS011;3384;42.628;23.380;2023-06-19T06:53:11;3.43;;;3.33;;
6693;SDS011;3384;42.628;23.380;2023-06-19T06:55:38;4.40;;;4.10;;
6693;SDS011;3384;42.628;23.380;2023-06-19T06:58:05;4.70;;;3.70;;
6693;SDS011;3384;42.628;23.380;2023-06-19T07:00:32;7.80;;;4.37;;
6693;SDS011;3384;42.628;23.380;2023-06-19T07:02:58;4.87;;;4.57;;
6693;SDS011;3384;42.628;23.380;2023-06-19T07:05:27;4.87;;;4.33;;
6693;SDS011;3384;42.628;23.380;2023-06-19T07:07:55;4.17;;;3.80;;
6693;SDS011;3384;42.628;23.380;2023-06-19T07:10:21;6.97;;;3.90;;
6693;SDS011;3384;42.628;23.380;2023-06-19T07:12:48;4.30;;;4.00;;
6693;SDS011;3384;42.628;23.380;2023-06-19T07:15:16;3.93;;;3.53;;
6693;SDS011;3384;42.628;23.380;2023-06-19T07:17:43;3.60;;;3.50;;
6693;SDS011;3384;42.628;23.380;2023-06-19T07:20:10;4.10;;;3.87;;
6693;SDS011;3384;42.628;23.380;2023-06-19T07:22:39;3.83;;;3.63;;
6693;SDS011;3384;42.628;23.380;2023-06-19T07:25:06;4.30;;;3.90;;
6693;SDS011;3384;42.628;23.380;2023-06-19T07:27:34;5.83;;;4.00;;
6693;SDS011;3384;42.628;23.380;2023-06-19T07:30:01;5.10;;;4.83;;
6693;SDS011;3384;42.628;23.380;2023-06-19T07:32:28;3.90;;;3.57;;
6693;SDS011;3384;42.628;23.380;2023-06-19T07:34:54;3.67;;;3.47;;
6693;SDS011;3384;42.628;23.380;2023-06-19T07:37:21;5.33;;;3.67;;
6693;SDS011;3384;42.628;23.380;2023-06-19T07:39:50;6.83;;;3.60;;
6693;SDS011;3384;42.628;23.380;2023-06-19T07:42:17;3.80;;;3.70;;
6693;SDS011;3384;42.628;23.380;2023-06-19T07:44:45;4.23;;;3.50;;
6693;SDS011;3384;42.628;23.380;2023-06-19T07:47:12;3.80;;;3.60;;
6693;SDS011;3384;42.628;23.380;2023-06-19T07:49:40;4.10;;;4.00;;
6693;SDS011;3384;42.628;23.380;2023-06-19T07:52:07;3.20;;;3.10;;
6693;SDS011;3384;42.628;23.380;2023-06-19T07:54:35;4.03;;;3.63;;
6693;SDS011;3384;42.628;23.380;2023-06-19T07:57:03;3.67;;;3.57;;
6693;SDS011;3384;42.628;23.380;2023-06-19T07:59:30;3.40;;;3.30;;
6693;SDS011;3384;42.628;23.380;2023-06-19T08:01:57;4.20;;;4.10;;
6693;SDS011;3384;42.628;23.380;2023-06-19T08:04:24;4.37;;;4.27;;
6693;SDS011;3384;42.628;23.380;2023-06-19T08:06:51;5.27;;;3.87;;
6693;SDS011;3384;42.628;23.380;2023-06-19T08:09:18;3.93;;;3.70;;
6693;SDS011;3384;42.628;23.380;2023-06-19T08:11:44;7.90;;;3.27;;
6693;SDS011;3384;42.628;23.380;2023-06-19T08:14:13;16.67;;;4.47;;
6693;SDS011;3384;42.628;23.380;2023-06-19T08:16:39;7.63;;;3.93;;
6693;SDS011;3384;42.628;23.380;2023-06-19T08:19:06;3.70;;;3.40;;
6693;SDS011;3384;42.628;23.380;2023-06-19T08:21:33;3.90;;;3.60;;
6693;SDS011;3384;42.628;23.380;2023-06-19T08:24:00;4.70;;;3.07;;
6693;SDS011;3384;42.628;23.380;2023-06-19T08:26:27;4.03;;;3.73;;
6693;SDS011;3384;42.628;23.380;2023-06-19T08:28:53;3.73;;;3.53;;
6693;SDS011;3384;42.628;23.380;2023-06-19T08:31:22;5.57;;;2.90;;
6693;SDS011;3384;42.628;23.380;2023-06-19T08:33:52;4.53;;;3.07;;
6693;SDS011;3384;42.628;23.380;2023-06-19T08:36:19;2.80;;;2.70;;
6693;SDS011;3384;42.628;23.380;2023-06-19T08:38:46;3.43;;;3.10;;
6693;SDS011;3384;42.628;23.380;2023-06-19T08:41:15;4.73;;;3.20;;
6693;SDS011;3384;42.628;23.380;2023-06-19T08:43:44;2.60;;;2.40;;
6693;SDS011;3384;42.628;23.380;2023-06-19T08:46:11;3.67;;;3.30;;
6693;SDS011;3384;42.628;23.380;2023-06-19T08:48:41;3.07;;;2.87;;
6693;SDS011;3384;42.628;23.380;2023-06-19T08:51:09;3.40;;;3.10;;
6693;SDS011;3384;42.628;23.380;2023-06-19T08:53:37;2.97;;;2.77;;
6693;SDS011;3384;42.628;23.380;2023-06-19T08:56:11;3.00;;;2.90;;
6693;SDS011;3384;42.628;23.380;2023-06-19T08:58:38;2.60;;;2.50;;
6693;SDS011;3384;42.628;23.380;2023-06-19T09:01:05;3.50;;;3.40;;
6693;SDS011;3384;42.628;23.380;2023-06-19T09:03:32;4.20;;;3.33;;
6693;SDS011;3384;42.628;23.380;2023-06-19T09:06:03;4.40;;;2.73;;
6693;SDS011;3384;42.628;23.380;2023-06-19T09:08:32;3.20;;;2.80;;
6693;SDS011;3384;42.628;23.380;2023-06-19T09:10:59;3.10;;;3.00;;
6693;SDS011;3384;42.628;23.380;2023-06-19T09:13:27;3.97;;;3.47;;
6693;SDS011;3384;42.628;23.380;2023-06-19T09:15:58;3.00;;;2.90;;
6693;SDS011;3384;42.628;23.380;2023-06-19T09:18:28;3.60;;;3.40;;
6693;SDS011;3384;42.628;23.380;2023-06-19T09:20:56;3.23;;;3.13;;
6693;SDS011;3384;42.628;23.380;2023-06-19T09:23:25;3.60;;;3.40;;
6693;SDS011;3384;42.628;23.380;2023-06-19T09:25:52;3.83;;;3.30;;
6693;SDS011;3384;42.628;23.380;2023-06-19T09:28:21;2.97;;;2.77;;
6693;SDS011;3384;42.628;23.380;2023-06-19T09:30:55;2.77;;;2.67;;
6693;SDS011;3384;42.628;23.380;2023-06-19T09:33:25;4.00;;;3.33;;
6693;SDS011;3384;42.628;23.380;2023-06-19T09:35:53;3.07;;;2.97;;
6693;SDS011;3384;42.628;23.380;2023-06-19T09:38:21;3.20;;;3.10;;
6693;SDS011;3384;42.628;23.380;2023-06-19T09:40:51;2.43;;;2.33;;
6693;SDS011;3384;42.628;23.380;2023-06-19T09:43:19;6.03;;;3.23;;
6693;SDS011;3384;42.628;23.380;2023-06-19T09:45:50;4.20;;;2.77;;
6693;SDS011;3384;42.628;23.380;2023-06-19T09:48:19;2.70;;;2.60;;
6693;SDS011;3384;42.628;23.380;2023-06-19T09:50:50;3.40;;;3.30;;
6693;SDS011;3384;42.628;23.380;2023-06-19T09:53:18;3.33;;;3.13;;
6693;SDS011;3384;42.628;23.380;2023-06-19T09:55:46;3.20;;;3.00;;
6693;SDS011;3384;42.628;23.380;2023-06-19T09:58:18;3.37;;;3.27;;
6693;SDS011;3384;42.628;23.380;2023-06-19T10:00:46;3.00;;;2.90;;
6693;SDS011;3384;42.628;23.380;2023-06-19T10:03:16;2.70;;;2.60;;
6693;SDS011;3384;42.628;23.380;2023-06-19T10:05:43;3.50;;;3.40;;
6693;SDS011;3384;42.628;23.380;2023-06-19T10:08:10;6.10;;;3.80;;
6693;SDS011;3384;42.628;23.380;2023-06-19T10:10:37;3.23;;;3.07;;
6693;SDS011;3384;42.628;23.380;2023-06-19T10:13:13;6.00;;;2.93;;
6693;SDS011;3384;42.628;23.380;2023-06-19T10:15:43;3.03;;;2.60;;
6693;SDS011;3384;42.628;23.380;2023-06-19T10:18:14;2.70;;;2.60;;
6693;SDS011;3384;42.628;23.380;2023-06-19T10:20:42;2.80;;;2.60;;
6693;SDS011;3384;42.628;23.380;2023-06-19T10:23:11;3.63;;;2.67;;
6693;SDS011;3384;42.628;23.380;2023-06-19T10:25:41;2.93;;;2.83;;
6693;SDS011;3384;42.628;23.380;2023-06-19T10:28:21;2.57;;;2.47;;
6693;SDS011;3384;42.628;23.380;2023-06-19T10:30:54;2.93;;;2.73;;
6693;SDS011;3384;42.628;23.380;2023-06-19T10:33:23;3.37;;;3.17;;
6693;SDS011;3384;42.628;23.380;2023-06-19T10:35:50;3.20;;;2.60;;
6693;SDS011;3384;42.628;23.380;2023-06-19T10:38:18;3.00;;;2.90;;
6693;SDS011;3384;42.628;23.380;2023-06-19T10:40:45;2.90;;;2.80;;
6693;SDS011;3384;42.628;23.380;2023-06-19T10:43:12;3.70;;;3.50;;
6693;SDS011;3384;42.628;23.380;2023-06-19T10:45:45;2.47;;;2.37;;
6693;SDS011;3384;42.628;23.380;2023-06-19T10:48:17;3.50;;;3.30;;
6693;SDS011;3384;42.628;23.380;2023-06-19T10:50:45;3.17;;;3.07;;
6693;SDS011;3384;42.628;23.380;2023-06-19T10:53:22;2.53;;;2.33;;
6693;SDS011;3384;42.628;23.380;2023-06-19T10:55:54;3.03;;;2.70;;
6693;SDS011;3384;42.628;23.380;2023-06-19T10:58:21;3.57;;;2.60;;
6693;SDS011;3384;42.628;23.380;2023-06-19T11:00:48;3.97;;;3.60;;
6693;SDS011;3384;42.628;23.380;2023-06-19T11:03:16;3.00;;;2.90;;
6693;SDS011;3384;42.628;23.380;2023-06-19T11:05:44;2.97;;;2.67;;
6693;SDS011;3384;42.628;23.380;2023-06-19T11:08:16;2.67;;;2.57;;
6693;SDS011;3384;42.628;23.380;2023-06-19T11:10:44;3.13;;;3.03;;
6693;SDS011;3384;42.628;23.380;2023-06-19T11:13:13;3.80;;;3.30;;
6693;SDS011;3384;42.628;23.380;2023-06-19T11:15:40;4.07;;;3.40;;
6693;SDS011;3384;42.628;23.380;2023-06-19T11:18:07;2.90;;;2.80;;
6693;SDS011;3384;42.628;23.380;2023-06-19T11:20:44;3.57;;;3.47;;
6693;SDS011;3384;42.628;23.380;2023-06-19T11:23:12;2.97;;;2.87;;
6693;SDS011;3384;42.628;23.380;2023-06-19T11:25:40;4.13;;;3.20;;
6693;SDS011;3384;42.628;23.380;2023-06-19T11:28:10;3.53;;;3.37;;
6693;SDS011;3384;42.628;23.380;2023-06-19T11:30:38;3.57;;;3.37;;
6693;SDS011;3384;42.628;23.380;2023-06-19T11:33:14;3.77;;;3.43;;
6693;SDS011;3384;42.628;23.380;2023-06-19T11:35:48;3.90;;;3.80;;
6693;SDS011;3384;42.628;23.380;2023-06-19T11:38:19;4.03;;;3.80;;
6693;SDS011;3384;42.628;23.380;2023-06-19T11:40:46;3.90;;;3.80;;
6693;SDS011;3384;42.628;23.380;2023-06-19T11:43:23;7.03;;;3.97;;
6693;SDS011;3384;42.628;23.380;2023-06-19T11:45:51;3.80;;;3.50;;
6693;SDS011;3384;42.628;23.380;2023-06-19T11:48:21;3.57;;;3.33;;
6693;SDS011;3384;42.628;23.380;2023-06-19T11:50:50;3.70;;;3.60;;
6693;SDS011;3384;42.628;23.380;2023-06-19T11:53:18;5.47;;;3.83;;
6693;SDS011;3384;42.628;23.380;2023-06-19T11:55:45;4.03;;;3.77;;
6693;SDS011;3384;42.628;23.380;2023-06-19T11:58:12;4.90;;;3.93;;
6693;SDS011;3384;42.628;23.380;2023-06-19T12:00:40;4.20;;;4.00;;
6693;SDS011;3384;42.628;23.380;2023-06-19T12:03:07;4.33;;;3.93;;
6693;SDS011;3384;42.628;23.380;2023-06-19T12:05:34;3.67;;;3.57;;
6693;SDS011;3384;42.628;23.380;2023-06-19T12:08:03;4.90;;;4.50;;
6693;SDS011;3384;42.628;23.380;2023-06-19T12:10:30;5.03;;;3.50;;
6693;SDS011;3384;42.628;23.380;2023-06-19T12:12:57;4.60;;;4.30;;
6693;SDS011;3384;42.628;23.380;2023-06-19T12:15:24;5.10;;;4.33;;
6693;SDS011;3384;42.628;23.380;2023-06-19T12:17:51;5.40;;;4.57;;
6693;SDS011;3384;42.628;23.380;2023-06-19T12:20:18;4.07;;;3.83;;
6693;SDS011;3384;42.628;23.380;2023-06-19T12:22:45;3.60;;;3.50;;
6693;SDS011;3384;42.628;23.380;2023-06-19T12:25:13;3.90;;;3.80;;
6693;SDS011;3384;42.628;23.380;2023-06-19T12:27:40;3.37;;;3.23;;
6693;SDS011;3384;42.628;23.380;2023-06-19T12:30:07;4.67;;;4.10;;
6693;SDS011;3384;42.628;23.380;2023-06-19T12:32:35;4.10;;;3.80;;
6693;SDS011;3384;42.628;23.380;2023-06-19T12:35:02;4.27;;;4.07;;
6693;SDS011;3384;42.628;23.380;2023-06-19T12:37:29;4.07;;;3.97;;
6693;SDS011;3384;42.628;23.380;2023-06-19T12:39:56;4.10;;;3.80;;
6693;SDS011;3384;42.628;23.380;2023-06-19T12:42:25;4.23;;;3.73;;
6693;SDS011;3384;42.628;23.380;2023-06-19T12:44:52;4.20;;;3.90;;
6693;SDS011;3384;42.628;23.380;2023-06-19T12:47:19;3.70;;;3.60;;
6693;SDS011;3384;42.628;23.380;2023-06-19T12:49:46;4.97;;;3.70;;
6693;SDS011;3384;42.628;23.380;2023-06-19T12:52:12;3.93;;;3.63;;
6693;SDS011;3384;42.628;23.380;2023-06-19T12:54:39;3.47;;;3.27;;
6693;SDS011;3384;42.628;23.380;2023-06-19T12:57:07;4.37;;;4.07;;
6693;SDS011;3384;42.628;23.380;2023-06-19T12:59:35;4.03;;;3.90;;
6693;SDS011;3384;42.628;23.380;2023-06-19T13:02:02;9.73;;;3.80;;
6693;SDS011;3384;42.628;23.380;2023-06-19T13:04:29;4.20;;;3.90;;
6693;SDS011;3384;42.628;23.380;2023-06-19T13:06:56;4.37;;;3.93;;
6693;SDS011;3384;42.628;23.380;2023-06-19T13:09:23;3.70;;;3.50;;
6693;SDS011;3384;42.628;23.380;2023-06-19T13:11:50;8.53;;;4.07;;
6693;SDS011;3384;42.628;23.380;2023-06-19T13:14:17;2.93;;;2.83;;
6693;SDS011;3384;42.628;23.380;2023-06-19T13:16:45;4.20;;;3.87;;
6693;SDS011;3384;42.628;23.380;2023-06-19T13:19:12;4.03;;;3.73;;
6693;SDS011;3384;42.628;23.380;2023-06-19T13:21:40;4.50;;;4.30;;
6693;SDS011;3384;42.628;23.380;2023-06-19T13:24:07;4.80;;;4.50;;
6693;SDS011;3384;42.628;23.380;2023-06-19T13:26:34;9.70;;;4.30;;
6693;SDS011;3384;42.628;23.380;2023-06-19T13:29:00;3.87;;;3.70;;
6693;SDS011;3384;42.628;23.380;2023-06-19T13:31:27;6.70;;;3.53;;
6693;SDS011;3384;42.628;23.380;2023-06-19T13:33:56;3.47;;;3.17;;
6693;SDS011;3384;42.628;23.380;2023-06-19T13:36:23;5.63;;;3.67;;
6693;SDS011;3384;42.628;23.380;2023-06-19T13:38:51;4.13;;;3.53;;
6693;SDS011;3384;42.628;23.380;2023-06-19T13:41:19;4.30;;;4.00;;
6693;SDS011;3384;42.628;23.380;2023-06-19T13:43:48;3.20;;;3.10;;
6693;SDS011;3384;42.628;23.380;2023-06-19T13:46:15;4.13;;;3.83;;
6693;SDS011;3384;42.628;23.380;2023-06-19T13:48:42;7.63;;;3.57;;
6693;SDS011;3384;42.628;23.380;2023-06-19T13:51:10;5.37;;;4.10;;
6693;SDS011;3384;42.628;23.380;2023-06-19T13:53:37;3.97;;;3.87;;
6693;SDS011;3384;42.628;23.380;2023-06-19T13:56:04;3.30;;;3.00;;
6693;SDS011;3384;42.628;23.380;2023-06-19T13:58:31;4.60;;;4.20;;
6693;SDS011;3384;42.628;23.380;2023-06-19T14:00:58;3.47;;;3.37;;
6693;SDS011;3384;42.628;23.380;2023-06-19T14:03:24;6.50;;;3.60;;
6693;SDS011;3384;42.628;23.380;2023-06-19T14:05:51;2.93;;;2.80;;
6693;SDS011;3384;42.628;23.380;2023-06-19T14:08:19;3.77;;;3.43;;
6693;SDS011;3384;42.628;23.380;2023-06-19T14:10:47;3.50;;;3.40;;
6693;SDS011;3384;42.628;23.380;2023-06-19T14:13:13;3.57;;;3.37;;
6693;SDS011;3384;42.628;23.380;2023-06-19T14:15:40;11.73;;;3.87;;
6693;SDS011;3384;42.628;23.380;2023-06-19T14:18:07;3.53;;;3.43;;
6693;SDS011;3384;42.628;23.380;2023-06-19T14:20:34;3.50;;;3.40;;
6693;SDS011;3384;42.628;23.380;2023-06-19T14:23:01;3.77;;;3.60;;
6693;SDS011;3384;42.628;23.380;2023-06-19T14:25:29;3.73;;;3.50;;
6693;SDS011;3384;42.628;23.380;2023-06-19T14:27:56;3.70;;;3.60;;
6693;SDS011;3384;42.628;23.380;2023-06-19T14:30:22;3.47;;;3.23;;
6693;SDS011;3384;42.628;23.380;2023-06-19T14:32:49;3.37;;;3.27;;
6693;SDS011;3384;42.628;23.380;2023-06-19T14:35:16;3.37;;;3.20;;
6693;SDS011;3384;42.628;23.380;2023-06-19T14:37:43;4.03;;;3.80;;
6693;SDS011;3384;42.628;23.380;2023-06-19T14:40:10;3.50;;;3.40;;
6693;SDS011;3384;42.628;23.380;2023-06-19T14:42:38;4.00;;;3.60;;
6693;SDS011;3384;42.628;23.380;2023-06-19T14:45:05;10.20;;;3.63;;
6693;SDS011;3384;42.628;23.380;2023-06-19T14:47:33;3.10;;;3.00;;
6693;SDS011;3384;42.628;23.380;2023-06-19T14:49:59;3.27;;;3.17;;
6693;SDS011;3384;42.628;23.380;2023-06-19T14:52:26;4.50;;;3.60;;
6693;SDS011;3384;42.628;23.380;2023-06-19T14:54:53;5.20;;;4.57;;
6693;SDS011;3384;42.628;23.380;2023-06-19T14:57:20;4.37;;;4.17;;
6693;SDS011;3384;42.628;23.380;2023-06-19T14:59:49;9.20;;;3.17;;
6693;SDS011;3384;42.628;23.380;2023-06-19T15:02:15;13.60;;;4.17;;
6693;SDS011;3384;42.628;23.380;2023-06-19T15:04:42;11.00;;;5.20;;